Aviation Digital Data Service (ADDS)

Output produced by METARs form (0744 UTC 24 March 2019)
found at http://www.aviationweather.gov/metar/data/
 
KXLL 240735Z AUTO 27004KT 10SM CLR 03/M10 A3021 RMK AO2
KABE 240651Z AUTO 27006KT 10SM CLR 04/M11 A3019 RMK AO2 SLP225 T00391106
KABE 240526Z 2406/2506 26006KT P6SM SKC 
     FM241600 25010G18KT P6SM SCT250 
     FM242300 24004KT P6SM BKN250 
     FM250400 VRB03KT P6SM BKN100
       
KAOO 240653Z AUTO VRB03KT 10SM CLR 00/M08 A3021 RMK AO2 SLP243 T00001078
KAOO 240531Z 2406/2506 VRB03KT P6SM SKC 
     FM241400 25010KT P6SM BKN250
       
KBVI 240524Z 2406/2506 23003KT P6SM SCT250 
     FM241600 22006KT P6SM BKN250 
     FM250400 25003KT 6SM -SHRA BR OVC035 AMD NOT SKED
       
KHMZ 240735Z AUTO 00000KT 10SM CLR M04/M08 A3023 RMK AO2 T10431083
KBFD 240653Z AUTO 00000KT 10SM CLR M04/M13 A3016 RMK AO2 SLP233 T10391128
KBFD 240531Z 2406/2506 27006KT P6SM SKC 
     FM241500 26008G14KT P6SM OVC250 
     FM242200 26007KT P6SM OVC060
       
KBTP 240656Z AUTO 00000KT 10SM CLR M02/M08 A3023 RMK AO2 SLP255 T10221083 FZRANO
KFIG 240654Z AUTO 23003KT 10SM CLR M02/M09 A3021 RMK AO2 SLP244 T10221089
KMQS 240735Z AUTO 30011KT 10SM CLR 02/M08 A3020 RMK AO2
KDYL 240654Z AUTO 27005KT 10SM CLR 03/M11 A3019 RMK AO2 SLP226 T00281111
KDUJ 240653Z AUTO 24003KT 10SM CLR M02/M12 A3019 RMK AO2 SLP239 T10221122 $
KDUJ 240524Z 2406/2506 26005KT P6SM SKC 
     FM241700 25008KT P6SM BKN250 
     FM250200 25005KT P6SM VCSH OVC050
       
KERI 240651Z AUTO 21007KT 10SM CLR 02/M08 A3021 RMK AO2 SLP237 T00171078 TSNO $
KERI 240532Z 2406/2506 17010KT P6SM SKC 
     FM241300 23009KT P6SM BKN150 
     FM242200 31010KT P6SM OVC040 
     FM250300 01007KT P6SM OVC025
       
KFKL 240656Z AUTO 22006KT 10SM CLR M03/M10 A3021 RMK AO2 SLP247 T10331100 FZRANO
KFKL 240524Z 2406/2506 23005KT P6SM SKC 
     FM241600 23007KT P6SM BKN200 
     FM250400 25003KT 6SM -SHRA BR OVC050
       
KCXY 240656Z AUTO 29005KT 10SM CLR 04/M10 A3022 RMK AO2 SLP237 T00391100
KMDT 240656Z 25003KT 10SM CLR 04/M07 A3021 RMK AO2 SLP233 T00441072
KMDT 240531Z 2406/2506 30007KT P6SM SKC 
     FM241700 25009KT P6SM BKN250
       
KHZL 240735Z AUTO 29006KT 10SM CLR 00/M13 A3017 RMK AO2
KIDI 240735Z AUTO 00000KT 10SM CLR M04/M08 A3026 RMK A01
KJST 240654Z AUTO 24007KT 10SM CLR M01/M10 A3018 RMK AO2 SLP244 T10111100
KJST 240531Z 2406/2506 28009KT P6SM SKC 
     FM241400 25011KT P6SM BKN250 
     FM242200 25008KT P6SM OVC050
       
KLNS 240653Z AUTO 30005KT 10SM CLR 01/M07 A3022 RMK AO2 SLP234 T00111067
KLNS 240531Z 2406/2506 27007KT P6SM SKC 
     FM241700 25009KT P6SM BKN250
       
KLBE 240735Z AUTO 00000KT 10SM CLR M04/M09 A3025 RMK AO2
KLBE 240524Z 2406/2506 00000KT P6SM SKC 
     FM241700 24007KT P6SM BKN250 
     FM250200 22004KT P6SM VCSH OVC060
       
K22N 240735Z AUTO 00000KT 10SM CLR M03/M06 A3020 RMK AO2
KGKJ 240653Z AUTO 19006KT 10SM CLR M02/M12 A3020 RMK AO2 SLP239 T10221117 TSNO
KMPO 240653Z AUTO 28011G19KT 10SM CLR M02/M12 A3010 RMK AO2 SLP212 T10171117
KUCP 240656Z AUTO 00000KT 10SM CLR M04/M08 A3024 RMK AO2 SLP267 T10441083
KCKZ 240735Z AUTO 30004KT 10SM CLR 02/M11 A3020 RMK AO2
KPNE 240654Z AUTO 30009KT 10SM CLR 06/M11 A3021 RMK AO2 SLP229 T00611106
KPNE 240526Z 2406/2506 27006KT P6SM SKC 
     FM241600 25010G18KT P6SM SCT250 
     FM242300 23004KT P6SM BKN250 
     FM250400 VRB03KT P6SM BKN100
       
KPHL 240654Z 24007KT 10SM CLR 04/M09 A3022 RMK AO2 SLP231 T00391089 $
KPHL 240526Z 2406/2512 25008KT P6SM SKC 
     FM241600 24010G18KT P6SM SCT250 
     FM242300 23008KT P6SM BKN250 
     FM250400 25004KT P6SM BKN100
       
KLOM 240735Z AUTO 00000KT 10SM CLR 03/M09 A3021 RMK AO1
KAGC 240653Z 18006KT 10SM CLR 00/M09 A3022 RMK AO2 SLP250 T00001094
KAGC 240524Z 2406/2506 21005KT P6SM SCT250 
     FM241700 23006KT P6SM BKN250 
     FM250100 23004KT P6SM VCSH OVC060
       
KPIT 240651Z 00000KT 10SM FEW250 M02/M08 A3023 RMK AO2 SLP254 T10171078 $
KPIT 240524Z 2406/2512 22003KT P6SM SCT250 
     FM241800 24006KT P6SM BKN150 
     FM250500 00000KT 5SM -SHRA BR OVC025
       
KPTW 240654Z AUTO 30006KT 10SM CLR 03/M09 A3021 RMK AO2 SLP230 T00281094
KUKT 240735Z AUTO 00000KT 10SM CLR 03/M11 A3019 RMK A01
KRDG 240654Z AUTO 31004KT 10SM CLR 02/M08 A3020 RMK AO2 SLPNO T00221078 $
KRDG 240526Z 2406/2506 VRB03KT P6SM SKC 
     FM241300 27006KT P6SM SKC 
     FM241600 25010G18KT P6SM SCT250 
     FM242300 24004KT P6SM BKN250 
     FM250400 VRB03KT P6SM BKN100
       
KRVL 240735Z AUTO 00000KT 10SM CLR 01/M09 A3020 RMK A01
KOYM 240735Z AUTO 27003KT 10SM CLR M02/M11 A3020 RMK AO2
KSEG 240653Z AUTO 00000KT 10SM CLR M02/M06 A3022 RMK AO2 SLP237 T10171056
K2G9 240735Z AUTO 22008KT 10SM CLR M02/M10 A3020 RMK AO2
KUNV 240736Z AUTO 20008KT 10SM CLR 01/M11 A3020 RMK AO2 T00111115
KUNV 240531Z 2406/2506 24006KT P6SM SKC 
     FM241500 25010KT P6SM BKN250
       
KAFJ 240656Z AUTO 00000KT 10SM CLR M03/M07 A3027 RMK AO2 SLP260 T10331067 FZRANO
KN38 240735Z AUTO 28007KT 10SM CLR M01/M14 A3012 RMK AO2
KOQN 240735Z AUTO 29005KT 10SM CLR 04/M10 A3019 RMK AO2
KAVP 240654Z 00000KT 10SM CLR M02/M11 A3017 RMK AO2 SLP223 T10221106
KAVP 240524Z 2406/2506 VRB03KT P6SM SKC WS020/25030KT 
     FM241200 25010G20KT P6SM SCT250 
     FM250500 26005KT P6SM OVC050
       
KIPT 240654Z AUTO 04003KT 10SM CLR M02/M08 A3020 RMK AO2 SLP231 T10221078
KIPT 240531Z 2406/2506 29006KT P6SM SKC 
     FM241600 24008KT P6SM BKN250
       
KTHV 240653Z AUTO 00000KT 10SM CLR M01/M06 A3022 RMK AO2 SLP240 T10061061